Time;durP1;ratioP1;P1;durP2;ratioP2;P2;SDS_P1;SDS_P2;PMS_P1;PMS_P2;Temp;Humidity;BMP_temperature;BMP_pressure;BME280_temperature;BME280_humidity;BME280_pressure;Samples;Min_cycle;Max_cycle;Signal;HPM_P1;HPM_P2
2022/02/15 00:11:33;;;;;;;;;;;;;;;9.02;66.36;99604.91;4425563;32;35752;-82
2022/02/15 00:14:07;;;;;;;;;;;;;;;8.59;67.94;99606.22;4422310;32;35249;-82
2022/02/15 00:17:49;;;;;;;;;;;;;;;8.63;67.82;99613.78;4426256;32;33243;-82
2022/02/15 00:27:03;;;;;;;;;;;;;;;;;;;;;
2022/02/15 00:30:35;;;;;;;;;;;;;;;8.37;68.60;99603.00;4395395;32;33757;-81
2022/02/15 00:45:30;;;;;;;;;;;;;;;;;;;;;
2022/02/15 00:52:16;;;;;;;;;;;;;;;8.76;66.60;99594.97;4343345;33;35368;-82
2022/02/15 00:58:29;;;;;;;;;;;;;;;8.79;66.97;99594.72;4302719;33;33919;-81
2022/02/15 01:02:00;;;;;;;;;;;;;;;8.73;67.03;99593.41;4314293;33;34645;-82
2022/02/15 01:23:01;;;;;;;;;;;;;;;;;;;;;
2022/02/15 01:29:49;;;;;;;;;;;;;;;8.43;68.25;99574.13;4403008;32;35241;-83
2022/02/15 01:38:35;;;;;;;;;;;;;;;;;;;;;
2022/02/15 01:42:16;;;;;;;;;;;;;;;8.23;69.09;99553.00;4452839;32;34201;-84
2022/02/15 01:45:07;;;;;;;;;;;;;;;8.25;69.24;99553.69;4436255;32;32614;-83
2022/02/15 01:54:43;;;;;;;;;;;;;;;8.57;68.10;99549.84;4435732;32;34245;-83
2022/02/15 02:03:58;;;;;;;;;;;;;;;8.70;67.55;99547.78;4457640;32;35373;-83
2022/02/15 02:17:39;;;;;;;;;;;;;;;8.66;67.63;99538.41;4468852;32;34440;-83
2022/02/15 02:27:21;;;;;;;;;;;;;;;8.30;68.67;99531.09;4410435;32;34586;-82
2022/02/15 02:36:19;;;;;;;;;;;;;;;;;;;;;
2022/02/15 02:39:43;;;;;;;;;;;;;;;8.51;67.77;99543.28;4334585;33;33286;-83
2022/02/15 02:52:20;;;;;;;;;;;;;;;;;;;;;
2022/02/15 02:55:52;;;;;;;;;;;;;;;9.08;64.99;99532.69;4277833;33;34903;-83
2022/02/15 03:02:08;;;;;;;;;;;;;;;;;;;;;
2022/02/15 03:08:08;;;;;;;;;;;;;;;;;;;;;
2022/02/15 03:11:52;;;;;;;;;;;;;;;9.28;64.14;99542.28;4377417;32;32302;-84
2022/02/15 03:20:37;;;;;;;;;;;;;;;9.39;63.75;99550.13;4360341;32;35243;-82
2022/02/15 03:27:16;;;;;;;;;;;;;;;9.56;62.81;99564.47;4389270;32;32971;-84
2022/02/15 03:36:38;;;;;;;;;;;;;;;9.51;62.71;99558.75;4376569;32;34544;-83
2022/02/15 03:40:09;;;;;;;;;;;;;;;9.48;62.65;99556.38;4368458;32;34482;-83
2022/02/15 03:48:52;;;;;;;;;;;;;;;;;;;;;
2022/02/15 03:57:45;;;;;;;;;;;;;;;9.33;62.02;99590.50;4468399;32;35550;-83
2022/02/15 04:17:23;;;;;;;;;;;;;;;;;;;;;
2022/02/15 04:20:00;;;;;;;;;;;;;;;;;;;;;
2022/02/15 04:22:47;;;;;;;;;;;;;;;9.12;61.60;99596.94;4430451;32;34680;-85
2022/02/15 04:29:11;;;;;;;;;;;;;;;;;;;;;
2022/02/15 04:32:38;;;;;;;;;;;;;;;8.93;60.77;99596.94;4416208;32;32371;-84
2022/02/15 04:35:17;;;;;;;;;;;;;;;8.78;60.75;99599.16;4408986;32;35205;-83
2022/02/15 04:39:08;;;;;;;;;;;;;;;8.94;59.88;99590.66;4417592;32;33596;-83
2022/02/15 04:45:34;;;;;;;;;;;;;;;8.36;60.95;99596.84;4443836;32;34664;-86
2022/02/15 04:48:44;;;;;;;;;;;;;;;8.33;61.12;99588.31;4456631;32;34268;-83
2022/02/15 04:54:23;;;;;;;;;;;;;;;;;;;;;
2022/02/15 05:00:49;;;;;;;;;;;;;;;;;;;;;
2022/02/15 05:07:01;;;;;;;;;;;;;;;;;;;;;
2022/02/15 05:10:24;;;;;;;;;;;;;;;7.67;61.77;99597.63;4464021;31;32444;-83
2022/02/15 05:13:01;;;;;;;;;;;;;;;7.66;61.81;99605.69;4496829;31;35063;-82
2022/02/15 05:22:50;;;;;;;;;;;;;;;7.62;61.04;99602.47;4461622;31;33380;-85
2022/02/15 05:38:21;;;;;;;;;;;;;;;7.41;60.39;99621.97;4405931;32;35411;-84
2022/02/15 05:41:46;;;;;;;;;;;;;;;7.27;60.28;99622.28;4419106;32;36033;-85
2022/02/15 05:44:16;;;;;;;;;;;;;;;7.11;60.47;99628.03;4400534;32;33424;-85
2022/02/15 05:48:00;;;;;;;;;;;;;;;7.21;59.98;99634.22;4385319;32;33197;-84
2022/02/15 05:53:56;;;;;;;;;;;;;;;7.02;60.44;99630.56;4393032;32;33769;-85
2022/02/15 05:56:36;;;;;;;;;;;;;;;7.11;59.98;99635.09;4403103;32;33058;-83
2022/02/15 06:06:44;;;;;;;;;;;;;;;6.89;59.78;99638.66;4371389;32;34132;-85
2022/02/15 06:09:24;;;;;;;;;;;;;;;6.86;60.19;99644.22;4365928;32;31640;-85
2022/02/15 06:12:54;;;;;;;;;;;;;;;6.96;59.62;99653.06;4372958;32;31823;-86
2022/02/15 06:15:19;;;;;;;;;;;;;;;;;;;;;
2022/02/15 06:19:00;;;;;;;;;;;;;;;6.89;59.54;99653.69;4370093;32;34216;-82
2022/02/15 06:28:11;;;;;;;;;;;;;;;6.83;59.31;99654.19;4402953;32;33931;-83
2022/02/15 06:32:04;;;;;;;;;;;;;;;;;;;;;
2022/02/15 06:35:12;;;;;;;;;;;;;;;6.69;59.84;99683.53;4395885;32;33651;-84
2022/02/15 06:44:35;;;;;;;;;;;;;;;6.88;59.72;99687.22;4464687;31;34269;-83
2022/02/15 06:53:26;;;;;;;;;;;;;;;;;;;;;
2022/02/15 06:57:02;;;;;;;;;;;;;;;6.70;63.10;99693.16;4398482;32;34113;-84
2022/02/15 06:59:36;;;;;;;;;;;;;;;6.90;62.78;99695.87;4425059;32;33097;-85
2022/02/15 07:09:19;;;;;;;;;;;;;;;7.32;62.63;99692.38;4414442;32;35383;-84
2022/02/15 07:15:25;;;;;;;;;;;;;;;7.10;64.40;99692.44;4387275;32;35678;-83
2022/02/15 07:18:25;;;;;;;;;;;;;;;;;;;;;
2022/02/15 07:21:58;;;;;;;;;;;;;;;7.35;64.73;99699.25;4359224;32;34171;-82
2022/02/15 07:27:36;;;;;;;;;;;;;;;;;;;;;
2022/02/15 07:31:19;;;;;;;;;;;;;;;7.87;63.55;99705.34;4377197;32;34778;-81
2022/02/15 07:37:10;;;;;;;;;;;;;;;8.06;63.59;99694.00;4396520;32;32969;-82
2022/02/15 07:43:01;;;;;;;;;;;;;;;8.08;65.23;99706.16;4386527;32;35211;-81
2022/02/15 07:55:48;;;;;;;;;;;;;;;;;;;;;
2022/02/15 07:58:48;;;;;;;;;;;;;;;;;;;;;
2022/02/15 08:05:04;;;;;;;;;;;;;;;;;;;;;
2022/02/15 08:10:56;;;;;;;;;;;;;;;8.59;65.24;99706.97;4367558;32;34960;-81
2022/02/15 08:20:47;;;;;;;;;;;;;;;8.83;64.84;99713.66;4382091;32;35164;-84
2022/02/15 08:23:24;;;;;;;;;;;;;;;;;;;;;
2022/02/15 08:26:25;;;;;;;;;;;;;;;;;;;;;
2022/02/15 08:32:46;;;;;;;;;;;;;;;;;;;;;
2022/02/15 08:42:30;;;;;;;;;;;;;;;9.44;64.18;99725.75;4430092;32;32912;-82
2022/02/15 08:45:27;;;;;;;;;;;;;;;;;;;;;
2022/02/15 08:49:14;;;;;;;;;;;;;;;9.73;63.42;99723.94;4442206;32;35270;-80
2022/02/15 08:55:04;;;;;;;;;;;;;;;;;;;;;
2022/02/15 09:01:28;;;;;;;;;;;;;;;;;;;;;
2022/02/15 09:04:34;;;;;;;;;;;;;;;;;;;;;
2022/02/15 09:07:37;;;;;;;;;;;;;;;10.58;61.67;99728.25;4419817;32;33331;-82
2022/02/15 09:13:39;;;;;;;;;;;;;;;10.64;62.17;99724.19;4416908;32;35482;-80
2022/02/15 09:23:35;;;;;;;;;;;;;;;10.71;60.96;99718.16;4306838;33;35951;-81
2022/02/15 09:26:12;;;;;;;;;;;;;;;;;;;;;
2022/02/15 09:29:17;;;;;;;;;;;;;;;;;;;;;
2022/02/15 09:45:42;;;;;;;;;;;;;;;12.30;55.89;99720.72;4351585;32;34288;-81
2022/02/15 09:48:18;;;;;;;;;;;;;;;;;;;;;
2022/02/15 09:51:46;;;;;;;;;;;;;;;12.68;53.84;99721.09;4370829;32;34359;-83
2022/02/15 09:54:27;;;;;;;;;;;;;;;;;;;;;
2022/02/15 10:06:51;;;;;;;;;;;;;;;12.62;54.65;99707.56;4435293;32;33939;-80
2022/02/15 10:19:37;;;;;;;;;;;;;;;12.51;55.10;99715.84;4413871;32;33288;-81
2022/02/15 10:35:38;;;;;;;;;;;;;;;13.55;51.95;99709.09;4373249;32;34017;-82
2022/02/15 10:41:48;;;;;;;;;;;;;;;13.67;51.96;99720.31;4388957;32;35262;-81
2022/02/15 10:44:42;;;;;;;;;;;;;;;13.38;53.20;99717.22;4369026;32;32387;-81
2022/02/15 10:47:21;;;;;;;;;;;;;;;13.60;52.42;99706.75;4390618;32;33027;-81
2022/02/15 10:54:11;;;;;;;;;;;;;;;14.02;50.11;99712.78;4381611;32;34644;-82
2022/02/15 10:59:41;;;;;;;;;;;;;;;;;;;;;
2022/02/15 11:02:37;;;;;;;;;;;;;;;14.38;49.87;99706.09;4411810;32;35455;-81
2022/02/15 11:05:48;;;;;;;;;;;;;;;14.64;48.88;99712.06;4433468;32;34550;-81
2022/02/15 11:12:28;;;;;;;;;;;;;;;14.84;47.13;99695.38;4450549;32;34793;-81
2022/02/15 11:22:49;;;;;;;;;;;;;;;15.33;46.57;99674.59;4468429;31;32350;-80
2022/02/15 11:25:45;;;;;;;;;;;;;;;15.22;46.66;99672.28;4462202;31;34212;-80
2022/02/15 11:28:21;;;;;;;;;;;;;;;;;;;;;
2022/02/15 11:34:26;;;;;;;;;;;;;;;;;;;;;
2022/02/15 11:43:52;;;;;;;;;;;;;;;15.74;44.94;99666.06;4380765;32;33041;-81
2022/02/15 11:47:08;;;;;;;;;;;;;;;15.96;46.72;99665.19;4381643;32;34189;-82
2022/02/15 11:52:59;;;;;;;;;;;;;;;16.12;45.06;99669.56;4379471;32;35428;-80
2022/02/15 12:06:35;;;;;;;;;;;;;;;16.68;42.86;99656.41;4351375;32;34101;-80
2022/02/15 12:09:07;;;;;;;;;;;;;;;16.12;44.71;99657.00;4349287;32;33751;-81
2022/02/15 12:12:41;;;;;;;;;;;;;;;16.64;44.31;99659.66;4402456;32;32181;-83
2022/02/15 12:15:53;;;;;;;;;;;;;;;16.88;42.62;99652.13;4433693;32;33242;-80
2022/02/15 12:22:12;;;;;;;;;;;;;;;17.25;42.27;99651.13;4432264;32;34385;-81
2022/02/15 12:25:17;;;;;;;;;;;;;;;;;;;;;
2022/02/15 12:31:19;;;;;;;;;;;;;;;;;;;;;
2022/02/15 12:35:04;;;;;;;;;;;;;;;17.83;41.61;99643.66;4441376;32;35636;-82
2022/02/15 12:40:32;;;;;;;;;;;;;;;17.47;40.40;99644.78;4433533;32;34780;-82
2022/02/15 12:43:46;;;;;;;;;;;;;;;17.30;41.40;99646.00;4422422;32;35866;-80
2022/02/15 12:52:29;;;;;;;;;;;;;;;17.38;41.33;99649.47;4381296;32;34577;-80
2022/02/15 12:56:11;;;;;;;;;;;;;;;17.78;39.89;99643.44;4365794;32;35361;-81
2022/02/15 13:02:09;;;;;;;;;;;;;;;17.80;41.36;99652.13;4368605;32;31710;-81
2022/02/15 13:08:05;;;;;;;;;;;;;;;;;;;;;
2022/02/15 13:14:06;;;;;;;;;;;;;;;18.85;39.08;99641.06;4392128;32;33078;-80
2022/02/15 13:17:08;;;;;;;;;;;;;;;;;;;;;
2022/02/15 13:22:54;;;;;;;;;;;;;;;19.42;37.10;99630.72;4421961;32;35465;-81
2022/02/15 13:41:51;;;;;;;;;;;;;;;23.75;28.89;99614.59;4384844;32;33652;-81
2022/02/15 13:45:25;;;;;;;;;;;;;;;23.16;28.55;99611.94;4402409;32;35965;-82
2022/02/15 13:47:50;;;;;;;;;;;;;;;24.17;28.38;99602.66;4421515;32;34333;-83
2022/02/15 13:54:50;;;;;;;;;;;;;;;;;;;;;
2022/02/15 13:57:34;;;;;;;;;;;;;;;24.45;27.64;99603.56;4414281;32;34277;-84
2022/02/15 14:01:00;;;;;;;;;;;;;;;;;;;;;
2022/02/15 14:07:52;;;;;;;;;;;;;;;24.07;27.14;99600.50;4414480;32;33355;-82
2022/02/15 14:10:19;;;;;;;;;;;;;;;23.11;28.67;99610.94;4423743;32;35379;-82
2022/02/15 14:20:09;;;;;;;;;;;;;;;;;;;;;
2022/02/15 14:27:01;;;;;;;;;;;;;;;20.41;32.68;99612.50;4420310;32;33913;-83
2022/02/15 14:36:04;;;;;;;;;;;;;;;;;;;;;
2022/02/15 14:40:05;;;;;;;;;;;;;;;;;;;;;
2022/02/15 14:42:46;;;;;;;;;;;;;;;;;;;;;
2022/02/15 14:45:36;;;;;;;;;;;;;;;20.57;32.69;99622.00;4479255;31;32916;-82
2022/02/15 14:49:10;;;;;;;;;;;;;;;20.01;33.86;99624.34;4462796;31;34878;-82
2022/02/15 14:51:34;;;;;;;;;;;;;;;19.77;35.22;99618.72;4497819;26;33461;-79
2022/02/15 14:54:04;;;;;;;;;;;;;;;19.68;34.44;99617.28;4434637;32;33936;-80
2022/02/15 14:56:31;;;;;;;;;;;;;;;20.29;33.04;99613.34;4417917;32;33425;-79
2022/02/15 14:58:59;;;;;;;;;;;;;;;20.24;33.72;99615.84;4441084;32;36384;-81
2022/02/15 15:01:26;;;;;;;;;;;;;;;20.41;33.08;99611.66;4416684;32;34606;-80
2022/02/15 15:03:54;;;;;;;;;;;;;;;20.26;32.94;99611.87;4427909;32;33729;-79
2022/02/15 15:06:22;;;;;;;;;;;;;;;19.94;33.65;99611.87;4409532;32;34475;-80
2022/02/15 15:08:50;;;;;;;;;;;;;;;19.70;33.74;99612.50;4432376;32;35921;-79
2022/02/15 15:11:17;;;;;;;;;;;;;;;19.72;34.12;99619.34;4405035;32;35213;-79
2022/02/15 15:13:44;;;;;;;;;;;;;;;19.39;35.08;99623.03;4433952;32;33678;-80
2022/02/15 15:16:12;;;;;;;;;;;;;;;18.76;36.00;99626.94;4423207;32;34028;-79
2022/02/15 15:18:39;;;;;;;;;;;;;;;18.23;37.38;99633.03;4418570;32;35131;-81
2022/02/15 15:21:07;;;;;;;;;;;;;;;18.12;37.58;99625.50;4404873;32;34983;-79
2022/02/15 15:23:35;;;;;;;;;;;;;;;17.47;38.69;99625.97;4433117;32;34163;-80
2022/02/15 15:26:07;;;;;;;;;;;;;;;17.21;39.56;99628.31;4417028;32;33906;-80
2022/02/15 15:28:36;;;;;;;;;;;;;;;16.62;41.27;99622.22;4420374;32;34715;-80
2022/02/15 15:31:05;;;;;;;;;;;;;;;16.68;41.35;99634.06;4436975;32;34395;-81
2022/02/15 15:33:32;;;;;;;;;;;;;;;16.50;41.69;99629.09;4404683;32;32064;-80
2022/02/15 15:36:00;;;;;;;;;;;;;;;16.32;42.21;99633.16;4432699;32;34367;-79
2022/02/15 15:38:27;;;;;;;;;;;;;;;15.99;43.09;99639.84;4403690;32;34675;-79
2022/02/15 15:41:04;;;;;;;;;;;;;;;15.91;43.41;99634.56;4422370;32;35475;-80
2022/02/15 15:43:32;;;;;;;;;;;;;;;15.66;44.02;99633.94;4421946;32;32706;-79
2022/02/15 15:46:00;;;;;;;;;;;;;;;15.53;44.34;99647.12;4434577;32;33903;-78
2022/02/15 15:48:27;;;;;;;;;;;;;;;15.44;44.56;99650.03;4431709;32;34379;-80
2022/02/15 15:50:55;;;;;;;;;;;;;;;15.32;45.00;99638.88;4424328;32;34488;-80
2022/02/15 15:53:24;;;;;;;;;;;;;;;15.19;45.23;99641.28;4432630;32;33514;-80
2022/02/15 15:55:51;;;;;;;;;;;;;;;15.28;45.14;99642.91;4417539;32;35031;-80
2022/02/15 15:58:19;;;;;;;;;;;;;;;15.14;45.38;99642.84;4417406;32;35967;-80
2022/02/15 16:00:46;;;;;;;;;;;;;;;15.14;45.43;99648.19;4423558;32;34533;-81
2022/02/15 16:03:18;;;;;;;;;;;;;;;14.70;46.68;99652.44;4441048;32;34159;-81
2022/02/15 16:05:45;;;;;;;;;;;;;;;14.82;46.38;99649.22;4421300;32;32891;-78
2022/02/15 16:08:16;;;;;;;;;;;;;;;14.74;46.61;99651.09;4416967;32;34897;-79
2022/02/15 16:10:46;;;;;;;;;;;;;;;14.86;46.43;99652.38;4425134;32;34992;-79
2022/02/15 16:13:18;;;;;;;;;;;;;;;14.41;47.52;99654.88;4438070;32;33055;-79
2022/02/15 16:15:47;;;;;;;;;;;;;;;14.43;47.58;99656.38;4436057;32;35313;-78
2022/02/15 16:18:15;;;;;;;;;;;;;;;13.92;49.09;99655.97;4418349;32;35541;-79
2022/02/15 16:20:43;;;;;;;;;;;;;;;14.09;48.73;99659.44;4422869;32;34339;-78
2022/02/15 16:23:13;;;;;;;;;;;;;;;13.79;49.95;99663.63;4407460;32;32704;-79
2022/02/15 16:25:44;;;;;;;;;;;;;;;13.27;52.13;99670.28;4443467;32;34475;-78
2022/02/15 16:28:13;;;;;;;;;;;;;;;12.76;54.01;99664.28;4427281;32;34602;-79
2022/02/15 16:31:14;;;;;;;;;;;;;;;12.90;54.11;99669.84;4435544;32;33899;-79
2022/02/15 16:33:43;;;;;;;;;;;;;;;12.76;54.80;99670.44;4394129;32;34212;-79
2022/02/15 16:36:11;;;;;;;;;;;;;;;12.64;55.58;99679.72;4432792;32;33759;-79
2022/02/15 16:38:38;;;;;;;;;;;;;;;12.28;56.86;99675.53;4425322;32;37152;-80
2022/02/15 16:41:12;;;;;;;;;;;;;;;12.24;57.03;99676.84;4415817;32;35063;-79
2022/02/15 16:43:46;;;;;;;;;;;;;;;12.44;56.47;99682.78;4418255;32;33664;-80
2022/02/15 16:46:16;;;;;;;;;;;;;;;12.58;56.11;99677.69;4426916;32;34339;-79
2022/02/15 16:48:49;;;;;;;;;;;;;;;12.51;56.28;99686.50;4416651;32;34916;-79
2022/02/15 16:51:17;;;;;;;;;;;;;;;12.60;55.92;99682.88;4411535;32;34496;-79
2022/02/15 16:53:47;;;;;;;;;;;;;;;12.52;56.15;99683.69;4421174;32;33384;-79
2022/02/15 16:56:20;;;;;;;;;;;;;;;12.75;55.50;99687.44;4437069;32;33443;-79
2022/02/15 16:58:52;;;;;;;;;;;;;;;12.78;55.27;99689.81;4437772;32;35189;-80
2022/02/15 17:01:27;;;;;;;;;;;;;;;12.91;54.73;99698.19;4391476;32;33779;-79
2022/02/15 17:03:59;;;;;;;;;;;;;;;12.86;54.99;99697.00;4429912;32;34085;-78
2022/02/15 17:06:32;;;;;;;;;;;;;;;12.81;55.07;99708.16;4422313;32;32422;-79
2022/02/15 17:09:02;;;;;;;;;;;;;;;12.77;55.29;99714.81;4422295;32;35281;-79
2022/02/15 17:11:30;;;;;;;;;;;;;;;12.58;55.78;99711.56;4406204;32;35045;-79
2022/02/15 17:13:59;;;;;;;;;;;;;;;12.66;55.50;99708.94;4433601;32;32715;-78
2022/02/15 17:16:27;;;;;;;;;;;;;;;12.59;55.43;99721.25;4421839;32;32389;-79
2022/02/15 17:18:55;;;;;;;;;;;;;;;12.63;55.71;99717.25;4443150;32;35024;-79
2022/02/15 17:21:22;;;;;;;;;;;;;;;12.61;55.91;99720.09;4420206;32;34818;-80
2022/02/15 17:23:52;;;;;;;;;;;;;;;12.59;55.77;99732.75;4419085;32;34147;-79
2022/02/15 17:26:20;;;;;;;;;;;;;;;12.40;56.22;99727.63;4418542;32;32499;-79
2022/02/15 17:28:53;;;;;;;;;;;;;;;12.26;56.97;99740.69;4416150;32;35122;-78
2022/02/15 17:31:23;;;;;;;;;;;;;;;12.23;57.08;99743.69;4426891;32;34967;-78
2022/02/15 17:33:51;;;;;;;;;;;;;;;12.38;56.63;99742.13;4396546;32;33454;-77
2022/02/15 17:36:23;;;;;;;;;;;;;;;12.55;55.98;99750.06;4419499;32;34790;-80
2022/02/15 17:38:52;;;;;;;;;;;;;;;12.49;55.88;99742.69;4439360;32;36702;-79
2022/02/15 17:41:20;;;;;;;;;;;;;;;12.55;55.95;99757.25;4423615;32;35434;-79
2022/02/15 17:43:48;;;;;;;;;;;;;;;12.55;55.91;99755.41;4429937;32;33631;-80
2022/02/15 17:46:17;;;;;;;;;;;;;;;12.49;56.20;99756.03;4427115;32;33124;-80
2022/02/15 17:48:47;;;;;;;;;;;;;;;12.26;56.66;99751.34;4436377;32;36167;-79
2022/02/15 17:51:15;;;;;;;;;;;;;;;12.10;57.31;99761.94;4426026;32;34780;-80
2022/02/15 17:53:45;;;;;;;;;;;;;;;12.16;57.13;99754.16;4438447;32;33730;-80
2022/02/15 17:56:13;;;;;;;;;;;;;;;11.88;57.96;99755.25;4409190;32;34871;-80
2022/02/15 17:58:54;;;;;;;;;;;;;;;11.82;58.15;99755.03;4426415;32;35219;-80
2022/02/15 18:01:22;;;;;;;;;;;;;;;11.47;59.49;99760.31;4418493;32;35088;-79
2022/02/15 18:03:51;;;;;;;;;;;;;;;11.39;59.77;99763.72;4423029;32;32508;-79
2022/02/15 18:06:21;;;;;;;;;;;;;;;11.27;60.12;99767.56;4409306;32;33424;-78
2022/02/15 18:08:51;;;;;;;;;;;;;;;11.49;59.51;99758.31;4415397;32;33585;-79
2022/02/15 18:11:19;;;;;;;;;;;;;;;11.53;59.28;99759.72;4415927;32;33645;-80
2022/02/15 18:13:50;;;;;;;;;;;;;;;11.42;59.66;99754.56;4416843;32;33373;-79
2022/02/15 18:16:17;;;;;;;;;;;;;;;11.42;59.51;99754.56;4421964;32;33143;-78
2022/02/15 18:18:48;;;;;;;;;;;;;;;11.46;59.43;99758.63;4419082;32;35403;-78
2022/02/15 18:21:15;;;;;;;;;;;;;;;11.60;58.97;99748.31;4435315;32;34678;-79
2022/02/15 18:23:44;;;;;;;;;;;;;;;11.72;58.38;99756.94;4439423;32;33810;-79
2022/02/15 18:26:13;;;;;;;;;;;;;;;11.66;58.58;99761.03;4439198;32;33896;-80
2022/02/15 18:28:42;;;;;;;;;;;;;;;11.56;59.04;99762.88;4432940;32;35584;-79
2022/02/15 18:31:11;;;;;;;;;;;;;;;11.82;58.08;99760.34;4415442;32;35056;-79
2022/02/15 18:33:39;;;;;;;;;;;;;;;11.77;58.15;99760.81;4422922;32;33260;-78
2022/02/15 18:36:06;;;;;;;;;;;;;;;11.93;57.64;99766.25;4419043;32;34469;-78
2022/02/15 18:38:34;;;;;;;;;;;;;;;11.94;57.71;99769.78;4416720;32;35096;-79
2022/02/15 18:41:04;;;;;;;;;;;;;;;11.64;58.40;99768.34;4416450;32;35200;-78
2022/02/15 18:43:34;;;;;;;;;;;;;;;11.89;57.84;99764.06;4422614;32;32423;-79
2022/02/15 18:46:04;;;;;;;;;;;;;;;11.77;58.06;99759.97;4424322;32;33276;-79
2022/02/15 18:48:33;;;;;;;;;;;;;;;11.71;58.06;99758.75;4415988;32;34414;-79
2022/02/15 18:51:11;;;;;;;;;;;;;;;11.54;58.74;99761.38;4404872;32;34855;-80
2022/02/15 18:53:41;;;;;;;;;;;;;;;11.65;58.37;99767.34;4413532;32;33171;-80
2022/02/15 18:56:11;;;;;;;;;;;;;;;11.73;57.98;99759.44;4414649;32;34642;-79
2022/02/15 18:58:42;;;;;;;;;;;;;;;11.11;59.76;99768.38;4405873;32;34227;-80
2022/02/15 19:01:12;;;;;;;;;;;;;;;11.22;59.67;99752.19;4420535;32;33676;-78
2022/02/15 19:03:40;;;;;;;;;;;;;;;11.10;59.91;99761.34;4427321;32;33623;-79
2022/02/15 19:06:10;;;;;;;;;;;;;;;11.05;60.11;99753.81;4419969;32;33274;-79
2022/02/15 19:08:40;;;;;;;;;;;;;;;10.73;60.94;99753.41;4413526;32;35310;-79
2022/02/15 19:11:08;;;;;;;;;;;;;;;10.80;61.00;99751.84;4399542;32;32839;-80
2022/02/15 19:13:36;;;;;;;;;;;;;;;10.84;60.87;99747.09;4417868;32;34158;-80
2022/02/15 19:16:10;;;;;;;;;;;;;;;10.73;61.29;99757.87;4413411;32;34646;-80
2022/02/15 19:18:42;;;;;;;;;;;;;;;10.77;61.13;99762.78;4416277;32;35332;-80
2022/02/15 19:21:12;;;;;;;;;;;;;;;10.51;61.96;99759.13;4411839;32;34090;-80
2022/02/15 19:23:40;;;;;;;;;;;;;;;10.76;61.09;99762.94;4416619;32;33654;-79
2022/02/15 19:26:08;;;;;;;;;;;;;;;10.73;61.09;99758.75;4418327;32;33300;-80
2022/02/15 19:28:38;;;;;;;;;;;;;;;10.71;61.01;99763.38;4417243;32;33677;-81
2022/02/15 19:31:09;;;;;;;;;;;;;;;10.64;61.18;99775.56;4418030;32;34300;-80
2022/02/15 19:33:39;;;;;;;;;;;;;;;10.66;61.18;99775.44;4417635;32;33097;-80
2022/02/15 19:36:09;;;;;;;;;;;;;;;10.67;61.19;99780.59;4421990;32;34621;-78
2022/02/15 19:38:38;;;;;;;;;;;;;;;10.50;61.45;99775.19;4424957;32;35250;-79
2022/02/15 19:41:06;;;;;;;;;;;;;;;10.30;62.25;99781.56;4418707;32;34282;-79
2022/02/15 19:43:34;;;;;;;;;;;;;;;10.33;62.02;99775.94;4419300;32;32565;-79
2022/02/15 19:46:09;;;;;;;;;;;;;;;10.48;61.67;99775.34;4418634;32;33980;-78
2022/02/15 19:48:40;;;;;;;;;;;;;;;10.38;62.04;99776.38;4411614;32;33855;-79
2022/02/15 19:51:08;;;;;;;;;;;;;;;10.25;62.58;99786.44;4422882;32;33993;-79
2022/02/15 19:53:35;;;;;;;;;;;;;;;10.30;nan;99792.19;4424667;32;34360;-78
2022/02/15 19:56:06;;;;;;;;;;;;;;;10.30;62.21;99790.34;4420609;32;34667;-78
2022/02/15 19:58:36;;;;;;;;;;;;;;;10.53;61.44;99788.22;4422176;32;35804;-79
2022/02/15 20:01:05;;;;;;;;;;;;;;;10.55;61.34;99794.22;4424237;32;33265;-78
2022/02/15 20:03:33;;;;;;;;;;;;;;;10.52;61.40;99795.37;4419559;32;32556;-79
2022/02/15 20:06:04;;;;;;;;;;;;;;;10.09;62.70;99791.53;4426272;32;33603;-79
2022/02/15 20:08:32;;;;;;;;;;;;;;;10.10;62.68;99794.03;4419866;32;34138;-78
2022/02/15 20:11:00;;;;;;;;;;;;;;;9.90;63.48;99791.50;4422191;32;34062;-79
2022/02/15 20:13:33;;;;;;;;;;;;;;;9.99;63.07;99787.97;4414352;32;33261;-79
2022/02/15 20:16:02;;;;;;;;;;;;;;;10.03;62.84;99787.59;4413069;32;33643;-79
2022/02/15 20:18:32;;;;;;;;;;;;;;;10.16;62.45;99785.50;4419576;32;35048;-79
2022/02/15 20:21:00;;;;;;;;;;;;;;;10.02;62.77;99783.25;4426258;32;34359;-79
2022/02/15 20:23:30;;;;;;;;;;;;;;;9.74;63.83;99781.41;4424920;32;33066;-79
2022/02/15 20:25:58;;;;;;;;;;;;;;;10.04;62.60;99786.63;4415575;32;33556;-78
2022/02/15 20:28:26;;;;;;;;;;;;;;;9.86;63.16;99790.94;4417251;32;35805;-79
2022/02/15 20:30:55;;;;;;;;;;;;;;;9.63;63.84;99789.50;4426815;32;34618;-78
2022/02/15 20:33:22;;;;;;;;;;;;;;;9.49;64.22;99787.28;4416203;32;32836;-79
2022/02/15 20:35:53;;;;;;;;;;;;;;;9.57;64.14;99790.09;4401957;32;32794;-78
2022/02/15 20:38:23;;;;;;;;;;;;;;;9.47;64.42;99789.19;4414670;32;35086;-77
2022/02/15 20:40:52;;;;;;;;;;;;;;;9.31;64.75;99782.75;4423645;32;34223;-79
2022/02/15 20:43:24;;;;;;;;;;;;;;;9.50;64.28;99788.94;4399771;32;34627;-77
2022/02/15 20:45:52;;;;;;;;;;;;;;;9.46;64.35;99787.53;4419974;32;34543;-79
2022/02/15 20:48:20;;;;;;;;;;;;;;;9.28;65.09;99789.16;4401368;32;35211;-78
2022/02/15 20:50:51;;;;;;;;;;;;;;;9.50;64.18;99791.59;4402653;32;34283;-79
2022/02/15 20:53:20;;;;;;;;;;;;;;;9.53;64.09;99787.84;4402357;32;32689;-80
2022/02/15 20:55:54;;;;;;;;;;;;;;;9.39;64.38;99791.72;4401304;32;34105;-80
2022/02/15 20:58:25;;;;;;;;;;;;;;;9.18;65.27;99782.19;4423176;32;36335;-80
2022/02/15 21:00:54;;;;;;;;;;;;;;;9.33;64.54;99784.31;4423632;32;35233;-79
2022/02/15 21:03:22;;;;;;;;;;;;;;;9.46;64.14;99781.41;4419641;32;33524;-78
2022/02/15 21:05:50;;;;;;;;;;;;;;;9.43;64.28;99789.63;4418777;32;33650;-79
2022/02/15 21:08:18;;;;;;;;;;;;;;;9.36;64.19;99789.34;4423094;32;35185;-80
2022/02/15 21:10:46;;;;;;;;;;;;;;;9.27;64.57;99776.88;4415302;32;35291;-79
2022/02/15 21:13:14;;;;;;;;;;;;;;;9.52;63.73;99781.69;4403231;32;33414;-80
2022/02/15 21:15:41;;;;;;;;;;;;;;;9.43;63.90;99786.97;4422651;32;34956;-80
2022/02/15 21:18:09;;;;;;;;;;;;;;;9.61;63.32;99783.50;4424026;32;35812;-78
2022/02/15 21:20:36;;;;;;;;;;;;;;;9.30;64.17;99789.03;4422263;32;34585;-79
2022/02/15 21:23:04;;;;;;;;;;;;;;;9.37;64.09;99788.34;4422492;32;35061;-79
2022/02/15 21:25:33;;;;;;;;;;;;;;;9.31;64.23;99788.91;4401526;32;33990;-79
2022/02/15 21:28:04;;;;;;;;;;;;;;;8.94;65.47;99790.47;4406999;32;35956;-77
2022/02/15 21:30:32;;;;;;;;;;;;;;;9.20;64.62;99790.84;4426137;32;32800;-79
2022/02/15 21:32:59;;;;;;;;;;;;;;;9.35;64.33;99786.84;4404655;32;32738;-80
2022/02/15 21:35:33;;;;;;;;;;;;;;;9.36;64.14;99784.03;4417299;32;34242;-80
2022/02/15 21:38:01;;;;;;;;;;;;;;;9.44;64.02;99786.00;4421753;32;35495;-79
2022/02/15 21:40:29;;;;;;;;;;;;;;;9.52;63.68;99784.34;4417071;32;35150;-79
2022/02/15 21:42:57;;;;;;;;;;;;;;;9.72;62.96;99775.41;4402887;32;31637;-79
2022/02/15 21:45:24;;;;;;;;;;;;;;;9.64;63.12;99766.47;4406109;32;33386;-81
2022/02/15 21:47:54;;;;;;;;;;;;;;;9.52;63.75;99770.19;4407801;32;35243;-79
2022/02/15 21:50:23;;;;;;;;;;;;;;;9.39;64.04;99762.53;4427938;32;34814;-79
2022/02/15 21:52:54;;;;;;;;;;;;;;;9.50;63.83;99766.84;4417700;32;33087;-80
2022/02/15 21:55:21;;;;;;;;;;;;;;;9.79;62.48;99771.22;4402135;32;33866;-77
2022/02/15 21:57:50;;;;;;;;;;;;;;;9.36;63.82;99760.13;4423305;32;35207;-79
2022/02/15 22:00:18;;;;;;;;;;;;;;;9.54;63.33;99745.19;4415169;32;34601;-79
2022/02/15 22:02:46;;;;;;;;;;;;;;;9.45;63.47;99750.50;4400151;32;31767;-79
2022/02/15 22:05:15;;;;;;;;;;;;;;;9.63;62.97;99754.16;4407040;32;32418;-79
2022/02/15 22:07:43;;;;;;;;;;;;;;;9.66;62.62;99749.37;4417304;32;36217;-78
2022/02/15 22:10:12;;;;;;;;;;;;;;;9.74;62.39;99754.03;4417784;32;35523;-79
2022/02/15 22:12:59;;;;;;;;;;;;;;;9.16;64.05;99755.75;4415583;32;32860;-79
2022/02/15 22:15:27;;;;;;;;;;;;;;;9.53;63.21;99748.00;4421349;32;32030;-78
2022/02/15 22:17:55;;;;;;;;;;;;;;;9.52;63.13;99752.47;4415134;32;35938;-78
2022/02/15 22:20:22;;;;;;;;;;;;;;;9.35;63.70;99745.19;4421575;32;35429;-79
2022/02/15 22:22:50;;;;;;;;;;;;;;;9.50;63.10;99748.25;4421912;32;33552;-79
2022/02/15 22:25:17;;;;;;;;;;;;;;;9.27;63.98;99747.66;4416083;32;34227;-79
2022/02/15 22:27:45;;;;;;;;;;;;;;;9.29;63.84;99748.41;4399933;32;34853;-79
2022/02/15 22:30:13;;;;;;;;;;;;;;;9.46;63.37;99755.66;4412522;32;35388;-79
2022/02/15 22:32:40;;;;;;;;;;;;;;;9.23;63.88;99754.25;4421458;32;32948;-79
2022/02/15 22:35:08;;;;;;;;;;;;;;;8.88;65.37;99753.88;4407839;32;34205;-79
2022/02/15 22:37:36;;;;;;;;;;;;;;;9.20;64.50;99762.50;4415709;32;35637;-78
2022/02/15 22:40:04;;;;;;;;;;;;;;;9.19;64.41;99757.31;4422068;32;34189;-79
2022/02/15 22:42:33;;;;;;;;;;;;;;;9.45;63.27;99753.16;4414377;32;32577;-79
2022/02/15 22:45:00;;;;;;;;;;;;;;;9.45;63.28;99753.16;4414138;32;33723;-80